sensor_id;sensor_type;location;lat;lon;timestamp;P1;durP1;ratioP1;P2;durP2;ratioP2
46731;SDS011;32477;51.474;5.696;2023-04-15T00:00:26;17.27;;;6.47;;
46731;SDS011;32477;51.474;5.696;2023-04-15T00:02:53;13.13;;;6.15;;
46731;SDS011;32477;51.474;5.696;2023-04-15T00:05:19;17.58;;;6.78;;
46731;SDS011;32477;51.474;5.696;2023-04-15T00:07:45;19.05;;;6.15;;
46731;SDS011;32477;51.474;5.696;2023-04-15T00:10:11;16.27;;;6.32;;
46731;SDS011;32477;51.474;5.696;2023-04-15T00:12:38;15.30;;;6.50;;
46731;SDS011;32477;51.474;5.696;2023-04-15T00:15:04;15.73;;;6.68;;
46731;SDS011;32477;51.474;5.696;2023-04-15T00:17:30;19.73;;;6.97;;
46731;SDS011;32477;51.474;5.696;2023-04-15T00:19:56;20.08;;;7.82;;
46731;SDS011;32477;51.474;5.696;2023-04-15T00:22:23;28.25;;;7.97;;
46731;SDS011;32477;51.474;5.696;2023-04-15T00:24:51;18.08;;;7.85;;
46731;SDS011;32477;51.474;5.696;2023-04-15T00:27:17;21.27;;;8.30;;
46731;SDS011;32477;51.474;5.696;2023-04-15T00:29:43;18.02;;;9.18;;
46731;SDS011;32477;51.474;5.696;2023-04-15T00:32:09;14.25;;;6.90;;
46731;SDS011;32477;51.474;5.696;2023-04-15T00:34:34;17.63;;;7.43;;
46731;SDS011;32477;51.474;5.696;2023-04-15T00:37:00;15.65;;;7.75;;
46731;SDS011;32477;51.474;5.696;2023-04-15T00:39:26;22.30;;;6.97;;
46731;SDS011;32477;51.474;5.696;2023-04-15T00:41:52;17.30;;;7.05;;
46731;SDS011;32477;51.474;5.696;2023-04-15T00:44:18;19.40;;;8.32;;
46731;SDS011;32477;51.474;5.696;2023-04-15T00:46:44;16.90;;;7.53;;
46731;SDS011;32477;51.474;5.696;2023-04-15T00:49:10;14.10;;;7.80;;
46731;SDS011;32477;51.474;5.696;2023-04-15T00:51:37;13.93;;;7.53;;
46731;SDS011;32477;51.474;5.696;2023-04-15T00:54:03;16.25;;;7.28;;
46731;SDS011;32477;51.474;5.696;2023-04-15T00:56:29;22.98;;;7.82;;
46731;SDS011;32477;51.474;5.696;2023-04-15T00:58:56;12.82;;;6.78;;
46731;SDS011;32477;51.474;5.696;2023-04-15T01:01:23;15.82;;;7.18;;
46731;SDS011;32477;51.474;5.696;2023-04-15T01:03:50;16.02;;;7.60;;
46731;SDS011;32477;51.474;5.696;2023-04-15T01:06:16;15.20;;;6.53;;
46731;SDS011;32477;51.474;5.696;2023-04-15T01:08:42;12.07;;;6.75;;
46731;SDS011;32477;51.474;5.696;2023-04-15T01:11:09;16.83;;;7.13;;
46731;SDS011;32477;51.474;5.696;2023-04-15T01:13:37;21.35;;;7.95;;
46731;SDS011;32477;51.474;5.696;2023-04-15T01:16:02;17.13;;;7.43;;
46731;SDS011;32477;51.474;5.696;2023-04-15T01:18:29;20.85;;;6.97;;
46731;SDS011;32477;51.474;5.696;2023-04-15T01:20:55;12.98;;;7.38;;
46731;SDS011;32477;51.474;5.696;2023-04-15T01:23:22;19.38;;;7.60;;
46731;SDS011;32477;51.474;5.696;2023-04-15T01:25:48;19.02;;;8.05;;
46731;SDS011;32477;51.474;5.696;2023-04-15T01:28:15;18.05;;;6.53;;
46731;SDS011;32477;51.474;5.696;2023-04-15T01:30:40;23.60;;;7.88;;
46731;SDS011;32477;51.474;5.696;2023-04-15T01:33:07;19.17;;;8.45;;
46731;SDS011;32477;51.474;5.696;2023-04-15T01:35:32;18.15;;;8.25;;
46731;SDS011;32477;51.474;5.696;2023-04-15T01:38:05;14.43;;;7.80;;
46731;SDS011;32477;51.474;5.696;2023-04-15T01:42:59;22.35;;;8.52;;
46731;SDS011;32477;51.474;5.696;2023-04-15T01:45:25;16.58;;;8.27;;
46731;SDS011;32477;51.474;5.696;2023-04-15T01:47:54;33.30;;;9.20;;
46731;SDS011;32477;51.474;5.696;2023-04-15T01:50:20;20.80;;;8.65;;
46731;SDS011;32477;51.474;5.696;2023-04-15T01:52:45;18.48;;;9.13;;
46731;SDS011;32477;51.474;5.696;2023-04-15T01:55:12;26.25;;;8.85;;
46731;SDS011;32477;51.474;5.696;2023-04-15T01:57:38;26.45;;;9.52;;
46731;SDS011;32477;51.474;5.696;2023-04-15T02:00:04;23.23;;;8.60;;
46731;SDS011;32477;51.474;5.696;2023-04-15T02:02:31;21.00;;;9.13;;
46731;SDS011;32477;51.474;5.696;2023-04-15T02:04:57;21.23;;;9.52;;
46731;SDS011;32477;51.474;5.696;2023-04-15T02:07:23;21.08;;;9.40;;
46731;SDS011;32477;51.474;5.696;2023-04-15T02:09:49;20.48;;;10.32;;
46731;SDS011;32477;51.474;5.696;2023-04-15T02:12:15;17.05;;;8.90;;
46731;SDS011;32477;51.474;5.696;2023-04-15T02:14:40;18.77;;;9.48;;
46731;SDS011;32477;51.474;5.696;2023-04-15T02:17:06;19.15;;;9.68;;
46731;SDS011;32477;51.474;5.696;2023-04-15T02:19:35;16.70;;;8.45;;
46731;SDS011;32477;51.474;5.696;2023-04-15T02:22:01;15.88;;;8.68;;
46731;SDS011;32477;51.474;5.696;2023-04-15T02:24:27;21.08;;;9.50;;
46731;SDS011;32477;51.474;5.696;2023-04-15T02:26:54;24.88;;;10.25;;
46731;SDS011;32477;51.474;5.696;2023-04-15T02:29:21;19.05;;;9.35;;
46731;SDS011;32477;51.474;5.696;2023-04-15T02:31:47;18.00;;;8.95;;
46731;SDS011;32477;51.474;5.696;2023-04-15T02:34:13;16.88;;;9.27;;
46731;SDS011;32477;51.474;5.696;2023-04-15T02:36:39;15.20;;;8.57;;
46731;SDS011;32477;51.474;5.696;2023-04-15T02:39:05;16.45;;;9.27;;
46731;SDS011;32477;51.474;5.696;2023-04-15T02:41:31;18.92;;;9.13;;
46731;SDS011;32477;51.474;5.696;2023-04-15T02:43:56;24.50;;;9.65;;
46731;SDS011;32477;51.474;5.696;2023-04-15T02:46:22;17.38;;;8.98;;
46731;SDS011;32477;51.474;5.696;2023-04-15T02:48:48;18.38;;;9.50;;
46731;SDS011;32477;51.474;5.696;2023-04-15T02:51:15;14.02;;;9.15;;
46731;SDS011;32477;51.474;5.696;2023-04-15T02:53:46;18.75;;;9.77;;
46731;SDS011;32477;51.474;5.696;2023-04-15T02:56:13;17.15;;;8.95;;
46731;SDS011;32477;51.474;5.696;2023-04-15T02:58:40;20.27;;;9.00;;
46731;SDS011;32477;51.474;5.696;2023-04-15T03:01:06;27.55;;;10.07;;
46731;SDS011;32477;51.474;5.696;2023-04-15T03:03:34;23.10;;;9.25;;
46731;SDS011;32477;51.474;5.696;2023-04-15T03:06:00;14.93;;;10.02;;
46731;SDS011;32477;51.474;5.696;2023-04-15T03:08:26;18.98;;;9.60;;
46731;SDS011;32477;51.474;5.696;2023-04-15T03:10:52;22.90;;;9.07;;
46731;SDS011;32477;51.474;5.696;2023-04-15T03:13:18;20.33;;;9.00;;
46731;SDS011;32477;51.474;5.696;2023-04-15T03:15:47;20.58;;;9.68;;
46731;SDS011;32477;51.474;5.696;2023-04-15T03:18:13;14.35;;;8.95;;
46731;SDS011;32477;51.474;5.696;2023-04-15T03:20:39;17.67;;;9.77;;
46731;SDS011;32477;51.474;5.696;2023-04-15T03:23:05;16.20;;;9.68;;
46731;SDS011;32477;51.474;5.696;2023-04-15T03:25:30;14.80;;;9.50;;
46731;SDS011;32477;51.474;5.696;2023-04-15T03:27:56;18.63;;;10.57;;
46731;SDS011;32477;51.474;5.696;2023-04-15T03:30:22;18.52;;;9.95;;
46731;SDS011;32477;51.474;5.696;2023-04-15T03:32:48;18.58;;;10.05;;
46731;SDS011;32477;51.474;5.696;2023-04-15T03:35:14;22.58;;;10.75;;
46731;SDS011;32477;51.474;5.696;2023-04-15T03:37:40;22.80;;;10.98;;
46731;SDS011;32477;51.474;5.696;2023-04-15T03:40:06;23.25;;;10.32;;
46731;SDS011;32477;51.474;5.696;2023-04-15T03:42:32;17.33;;;11.07;;
46731;SDS011;32477;51.474;5.696;2023-04-15T03:44:58;25.20;;;10.13;;
46731;SDS011;32477;51.474;5.696;2023-04-15T03:47:23;21.17;;;10.85;;
46731;SDS011;32477;51.474;5.696;2023-04-15T03:49:49;22.83;;;10.40;;
46731;SDS011;32477;51.474;5.696;2023-04-15T03:52:15;18.40;;;10.95;;
46731;SDS011;32477;51.474;5.696;2023-04-15T03:54:40;21.35;;;11.00;;
46731;SDS011;32477;51.474;5.696;2023-04-15T03:57:06;21.08;;;10.27;;
46731;SDS011;32477;51.474;5.696;2023-04-15T03:59:32;20.42;;;10.77;;
46731;SDS011;32477;51.474;5.696;2023-04-15T04:01:58;24.25;;;11.15;;
46731;SDS011;32477;51.474;5.696;2023-04-15T04:04:23;21.38;;;10.18;;
46731;SDS011;32477;51.474;5.696;2023-04-15T04:06:49;16.42;;;10.00;;
46731;SDS011;32477;51.474;5.696;2023-04-15T04:09:15;18.77;;;10.50;;
46731;SDS011;32477;51.474;5.696;2023-04-15T04:11:40;23.45;;;10.43;;
46731;SDS011;32477;51.474;5.696;2023-04-15T04:14:06;21.50;;;11.43;;
46731;SDS011;32477;51.474;5.696;2023-04-15T04:16:31;23.88;;;10.05;;
46731;SDS011;32477;51.474;5.696;2023-04-15T04:18:57;21.58;;;10.68;;
46731;SDS011;32477;51.474;5.696;2023-04-15T04:21:23;25.10;;;11.55;;
46731;SDS011;32477;51.474;5.696;2023-04-15T04:23:48;27.40;;;11.85;;
46731;SDS011;32477;51.474;5.696;2023-04-15T04:26:14;20.17;;;11.90;;
46731;SDS011;32477;51.474;5.696;2023-04-15T04:28:40;25.40;;;11.48;;
46731;SDS011;32477;51.474;5.696;2023-04-15T04:31:06;18.95;;;11.07;;
46731;SDS011;32477;51.474;5.696;2023-04-15T04:33:32;19.02;;;11.73;;
46731;SDS011;32477;51.474;5.696;2023-04-15T04:35:58;27.33;;;11.32;;
46731;SDS011;32477;51.474;5.696;2023-04-15T04:38:23;25.70;;;12.00;;
46731;SDS011;32477;51.474;5.696;2023-04-15T04:40:49;25.98;;;11.50;;
46731;SDS011;32477;51.474;5.696;2023-04-15T04:43:15;26.10;;;10.82;;
46731;SDS011;32477;51.474;5.696;2023-04-15T04:45:40;21.00;;;11.20;;
46731;SDS011;32477;51.474;5.696;2023-04-15T04:48:06;19.38;;;11.35;;
46731;SDS011;32477;51.474;5.696;2023-04-15T04:50:34;17.90;;;10.88;;
46731;SDS011;32477;51.474;5.696;2023-04-15T04:53:00;18.33;;;10.93;;
46731;SDS011;32477;51.474;5.696;2023-04-15T04:55:26;21.75;;;11.82;;
46731;SDS011;32477;51.474;5.696;2023-04-15T04:57:52;20.42;;;11.50;;
46731;SDS011;32477;51.474;5.696;2023-04-15T05:00:17;22.08;;;11.60;;
46731;SDS011;32477;51.474;5.696;2023-04-15T05:02:43;24.27;;;12.45;;
46731;SDS011;32477;51.474;5.696;2023-04-15T05:05:09;20.33;;;11.85;;
46731;SDS011;32477;51.474;5.696;2023-04-15T05:07:36;23.08;;;12.07;;
46731;SDS011;32477;51.474;5.696;2023-04-15T05:10:02;24.88;;;12.30;;
46731;SDS011;32477;51.474;5.696;2023-04-15T05:12:28;24.30;;;12.32;;
46731;SDS011;32477;51.474;5.696;2023-04-15T05:14:54;24.80;;;11.70;;
46731;SDS011;32477;51.474;5.696;2023-04-15T05:17:19;24.15;;;11.63;;
46731;SDS011;32477;51.474;5.696;2023-04-15T05:19:45;22.00;;;12.45;;
46731;SDS011;32477;51.474;5.696;2023-04-15T05:22:11;21.30;;;11.40;;
46731;SDS011;32477;51.474;5.696;2023-04-15T05:24:37;24.83;;;13.30;;
46731;SDS011;32477;51.474;5.696;2023-04-15T05:27:02;23.65;;;12.85;;
46731;SDS011;32477;51.474;5.696;2023-04-15T05:29:28;21.33;;;10.85;;
46731;SDS011;32477;51.474;5.696;2023-04-15T05:31:54;25.50;;;13.00;;
46731;SDS011;32477;51.474;5.696;2023-04-15T05:34:20;20.42;;;10.88;;
46731;SDS011;32477;51.474;5.696;2023-04-15T05:36:46;20.63;;;10.73;;
46731;SDS011;32477;51.474;5.696;2023-04-15T05:39:12;22.48;;;11.77;;
46731;SDS011;32477;51.474;5.696;2023-04-15T05:41:37;17.33;;;10.38;;
46731;SDS011;32477;51.474;5.696;2023-04-15T05:44:03;17.65;;;10.70;;
46731;SDS011;32477;51.474;5.696;2023-04-15T05:46:29;17.40;;;9.80;;
46731;SDS011;32477;51.474;5.696;2023-04-15T05:48:54;17.40;;;10.52;;
46731;SDS011;32477;51.474;5.696;2023-04-15T05:51:20;24.67;;;10.50;;
46731;SDS011;32477;51.474;5.696;2023-04-15T05:53:46;19.00;;;10.57;;
46731;SDS011;32477;51.474;5.696;2023-04-15T05:56:11;22.88;;;12.05;;
46731;SDS011;32477;51.474;5.696;2023-04-15T05:58:37;16.05;;;10.60;;
46731;SDS011;32477;51.474;5.696;2023-04-15T06:01:03;18.75;;;10.57;;
46731;SDS011;32477;51.474;5.696;2023-04-15T06:03:29;17.75;;;10.20;;
46731;SDS011;32477;51.474;5.696;2023-04-15T06:05:54;16.27;;;9.60;;
46731;SDS011;32477;51.474;5.696;2023-04-15T06:08:20;18.80;;;9.75;;
46731;SDS011;32477;51.474;5.696;2023-04-15T06:10:46;17.65;;;10.32;;
46731;SDS011;32477;51.474;5.696;2023-04-15T06:13:12;20.42;;;9.63;;
46731;SDS011;32477;51.474;5.696;2023-04-15T06:15:37;16.23;;;8.70;;
46731;SDS011;32477;51.474;5.696;2023-04-15T06:18:03;12.35;;;8.65;;
46731;SDS011;32477;51.474;5.696;2023-04-15T06:20:29;15.43;;;9.43;;
46731;SDS011;32477;51.474;5.696;2023-04-15T06:22:54;16.10;;;9.50;;
46731;SDS011;32477;51.474;5.696;2023-04-15T06:25:21;14.43;;;9.30;;
46731;SDS011;32477;51.474;5.696;2023-04-15T06:27:47;18.77;;;10.20;;
46731;SDS011;32477;51.474;5.696;2023-04-15T06:30:12;15.82;;;9.27;;
46731;SDS011;32477;51.474;5.696;2023-04-15T06:32:38;13.52;;;8.65;;
46731;SDS011;32477;51.474;5.696;2023-04-15T06:35:04;15.45;;;9.90;;
46731;SDS011;32477;51.474;5.696;2023-04-15T06:37:30;16.80;;;9.20;;
46731;SDS011;32477;51.474;5.696;2023-04-15T06:39:56;14.45;;;9.77;;
46731;SDS011;32477;51.474;5.696;2023-04-15T06:42:22;15.00;;;9.02;;
46731;SDS011;32477;51.474;5.696;2023-04-15T06:44:48;23.30;;;10.63;;
46731;SDS011;32477;51.474;5.696;2023-04-15T06:47:14;17.85;;;9.82;;
46731;SDS011;32477;51.474;5.696;2023-04-15T06:49:39;14.02;;;9.55;;
46731;SDS011;32477;51.474;5.696;2023-04-15T06:52:07;17.65;;;10.20;;
46731;SDS011;32477;51.474;5.696;2023-04-15T06:54:32;16.15;;;10.25;;
46731;SDS011;32477;51.474;5.696;2023-04-15T06:56:58;15.63;;;8.68;;
46731;SDS011;32477;51.474;5.696;2023-04-15T06:59:24;21.30;;;9.55;;
46731;SDS011;32477;51.474;5.696;2023-04-15T07:01:49;13.85;;;8.57;;
46731;SDS011;32477;51.474;5.696;2023-04-15T07:04:15;17.45;;;8.68;;
46731;SDS011;32477;51.474;5.696;2023-04-15T07:06:41;17.90;;;8.27;;
46731;SDS011;32477;51.474;5.696;2023-04-15T07:09:07;12.75;;;8.38;;
46731;SDS011;32477;51.474;5.696;2023-04-15T07:11:33;14.27;;;8.65;;
46731;SDS011;32477;51.474;5.696;2023-04-15T07:13:58;14.00;;;8.68;;
46731;SDS011;32477;51.474;5.696;2023-04-15T07:16:24;11.38;;;7.82;;
46731;SDS011;32477;51.474;5.696;2023-04-15T07:18:50;15.30;;;7.63;;
46731;SDS011;32477;51.474;5.696;2023-04-15T07:21:16;12.70;;;8.13;;
46731;SDS011;32477;51.474;5.696;2023-04-15T07:23:41;14.35;;;8.43;;
46731;SDS011;32477;51.474;5.696;2023-04-15T07:26:08;11.80;;;8.05;;
46731;SDS011;32477;51.474;5.696;2023-04-15T07:28:33;13.98;;;8.60;;
46731;SDS011;32477;51.474;5.696;2023-04-15T07:30:59;11.98;;;7.93;;
46731;SDS011;32477;51.474;5.696;2023-04-15T07:33:25;13.90;;;9.00;;
46731;SDS011;32477;51.474;5.696;2023-04-15T07:35:50;14.82;;;7.97;;
46731;SDS011;32477;51.474;5.696;2023-04-15T07:38:16;12.43;;;7.53;;
46731;SDS011;32477;51.474;5.696;2023-04-15T07:40:42;12.57;;;7.47;;
46731;SDS011;32477;51.474;5.696;2023-04-15T07:43:08;13.40;;;7.63;;
46731;SDS011;32477;51.474;5.696;2023-04-15T07:45:34;11.93;;;7.85;;
46731;SDS011;32477;51.474;5.696;2023-04-15T07:48:00;10.85;;;7.50;;
46731;SDS011;32477;51.474;5.696;2023-04-15T07:50:26;10.02;;;7.15;;
46731;SDS011;32477;51.474;5.696;2023-04-15T07:52:52;10.45;;;6.72;;
46731;SDS011;32477;51.474;5.696;2023-04-15T07:55:18;15.27;;;8.23;;
46731;SDS011;32477;51.474;5.696;2023-04-15T07:57:45;18.13;;;8.20;;
46731;SDS011;32477;51.474;5.696;2023-04-15T08:00:13;13.40;;;7.75;;
46731;SDS011;32477;51.474;5.696;2023-04-15T08:02:40;11.65;;;7.18;;
46731;SDS011;32477;51.474;5.696;2023-04-15T08:05:07;9.05;;;6.38;;
46731;SDS011;32477;51.474;5.696;2023-04-15T08:07:35;12.05;;;7.28;;
46731;SDS011;32477;51.474;5.696;2023-04-15T08:10:02;10.27;;;7.15;;
46731;SDS011;32477;51.474;5.696;2023-04-15T08:12:28;8.27;;;5.80;;
46731;SDS011;32477;51.474;5.696;2023-04-15T08:14:54;7.65;;;5.43;;
46731;SDS011;32477;51.474;5.696;2023-04-15T08:17:20;6.45;;;5.20;;
46731;SDS011;32477;51.474;5.696;2023-04-15T08:19:46;8.15;;;4.93;;
46731;SDS011;32477;51.474;5.696;2023-04-15T08:22:12;9.32;;;4.90;;
46731;SDS011;32477;51.474;5.696;2023-04-15T08:24:38;6.28;;;4.28;;
46731;SDS011;32477;51.474;5.696;2023-04-15T08:27:04;9.05;;;5.03;;
46731;SDS011;32477;51.474;5.696;2023-04-15T08:29:30;9.13;;;5.43;;
46731;SDS011;32477;51.474;5.696;2023-04-15T08:31:56;7.10;;;4.88;;
46731;SDS011;32477;51.474;5.696;2023-04-15T08:34:23;9.43;;;4.95;;
46731;SDS011;32477;51.474;5.696;2023-04-15T08:36:49;7.90;;;4.70;;
46731;SDS011;32477;51.474;5.696;2023-04-15T08:39:15;6.25;;;4.18;;
46731;SDS011;32477;51.474;5.696;2023-04-15T08:41:45;8.75;;;4.82;;
46731;SDS011;32477;51.474;5.696;2023-04-15T08:44:12;8.50;;;5.38;;
46731;SDS011;32477;51.474;5.696;2023-04-15T08:46:38;9.50;;;5.63;;
46731;SDS011;32477;51.474;5.696;2023-04-15T08:49:06;7.53;;;5.40;;
46731;SDS011;32477;51.474;5.696;2023-04-15T08:51:35;8.35;;;5.47;;
46731;SDS011;32477;51.474;5.696;2023-04-15T08:54:02;8.45;;;5.13;;
46731;SDS011;32477;51.474;5.696;2023-04-15T08:56:29;10.43;;;5.15;;
46731;SDS011;32477;51.474;5.696;2023-04-15T08:58:57;10.25;;;5.55;;
46731;SDS011;32477;51.474;5.696;2023-04-15T09:01:23;8.25;;;5.43;;
46731;SDS011;32477;51.474;5.696;2023-04-15T09:03:49;7.32;;;5.35;;
46731;SDS011;32477;51.474;5.696;2023-04-15T09:06:16;9.82;;;5.30;;
46731;SDS011;32477;51.474;5.696;2023-04-15T09:08:42;9.02;;;5.28;;
46731;SDS011;32477;51.474;5.696;2023-04-15T09:11:08;8.65;;;5.03;;
46731;SDS011;32477;51.474;5.696;2023-04-15T09:13:34;7.53;;;4.60;;
46731;SDS011;32477;51.474;5.696;2023-04-15T09:16:00;7.88;;;5.07;;
46731;SDS011;32477;51.474;5.696;2023-04-15T09:18:28;10.60;;;4.63;;
46731;SDS011;32477;51.474;5.696;2023-04-15T09:20:56;9.07;;;5.35;;
46731;SDS011;32477;51.474;5.696;2023-04-15T09:23:36;7.97;;;4.70;;
46731;SDS011;32477;51.474;5.696;2023-04-15T09:26:02;6.82;;;4.20;;
46731;SDS011;32477;51.474;5.696;2023-04-15T09:28:31;5.20;;;4.03;;
46731;SDS011;32477;51.474;5.696;2023-04-15T09:30:57;5.28;;;3.63;;
46731;SDS011;32477;51.474;5.696;2023-04-15T09:33:24;6.57;;;3.45;;
46731;SDS011;32477;51.474;5.696;2023-04-15T09:38:24;6.18;;;3.83;;
46731;SDS011;32477;51.474;5.696;2023-04-15T09:40:50;5.43;;;3.78;;
46731;SDS011;32477;51.474;5.696;2023-04-15T09:43:16;5.45;;;3.58;;
46731;SDS011;32477;51.474;5.696;2023-04-15T09:45:49;5.57;;;3.50;;
46731;SDS011;32477;51.474;5.696;2023-04-15T09:48:19;5.05;;;3.60;;
46731;SDS011;32477;51.474;5.696;2023-04-15T09:50:49;5.78;;;3.38;;
46731;SDS011;32477;51.474;5.696;2023-04-15T09:53:18;5.15;;;3.40;;
46731;SDS011;32477;51.474;5.696;2023-04-15T09:55:54;5.95;;;3.53;;
46731;SDS011;32477;51.474;5.696;2023-04-15T10:00:51;6.03;;;3.97;;
46731;SDS011;32477;51.474;5.696;2023-04-15T10:03:32;6.07;;;3.78;;
46731;SDS011;32477;51.474;5.696;2023-04-15T10:06:00;5.13;;;3.78;;
46731;SDS011;32477;51.474;5.696;2023-04-15T10:08:29;7.07;;;3.22;;
46731;SDS011;32477;51.474;5.696;2023-04-15T10:10:57;5.22;;;3.80;;
46731;SDS011;32477;51.474;5.696;2023-04-15T10:13:24;4.15;;;3.60;;
46731;SDS011;32477;51.474;5.696;2023-04-15T10:15:57;9.32;;;4.15;;
46731;SDS011;32477;51.474;5.696;2023-04-15T10:18:26;4.82;;;2.95;;
46731;SDS011;32477;51.474;5.696;2023-04-15T10:20:52;7.15;;;3.38;;
46731;SDS011;32477;51.474;5.696;2023-04-15T10:23:19;7.07;;;3.50;;
46731;SDS011;32477;51.474;5.696;2023-04-15T10:25:47;4.40;;;2.88;;
46731;SDS011;32477;51.474;5.696;2023-04-15T10:28:14;3.33;;;2.33;;
46731;SDS011;32477;51.474;5.696;2023-04-15T10:30:41;6.35;;;3.63;;
46731;SDS011;32477;51.474;5.696;2023-04-15T10:33:07;9.38;;;5.00;;
46731;SDS011;32477;51.474;5.696;2023-04-15T10:35:34;5.50;;;3.70;;
46731;SDS011;32477;51.474;5.696;2023-04-15T10:38:00;3.65;;;2.55;;
46731;SDS011;32477;51.474;5.696;2023-04-15T10:40:27;4.38;;;3.40;;
46731;SDS011;32477;51.474;5.696;2023-04-15T10:42:58;4.78;;;2.97;;
46731;SDS011;32477;51.474;5.696;2023-04-15T10:45:26;3.50;;;2.40;;
46731;SDS011;32477;51.474;5.696;2023-04-15T10:47:55;4.75;;;2.47;;
46731;SDS011;32477;51.474;5.696;2023-04-15T10:50:26;4.90;;;2.50;;
46731;SDS011;32477;51.474;5.696;2023-04-15T10:52:54;4.45;;;2.55;;
46731;SDS011;32477;51.474;5.696;2023-04-15T10:55:21;4.65;;;2.83;;
46731;SDS011;32477;51.474;5.696;2023-04-15T10:57:52;3.92;;;2.28;;
46731;SDS011;32477;51.474;5.696;2023-04-15T11:00:19;6.68;;;2.53;;
46731;SDS011;32477;51.474;5.696;2023-04-15T11:05:47;6.03;;;3.00;;
46731;SDS011;32477;51.474;5.696;2023-04-15T11:08:13;5.38;;;2.35;;
46731;SDS011;32477;51.474;5.696;2023-04-15T11:15:38;5.32;;;2.92;;
46731;SDS011;32477;51.474;5.696;2023-04-15T11:18:09;5.07;;;2.17;;
46731;SDS011;32477;51.474;5.696;2023-04-15T11:20:49;9.82;;;2.47;;
46731;SDS011;32477;51.474;5.696;2023-04-15T11:25:58;4.22;;;2.67;;
46731;SDS011;32477;51.474;5.696;2023-04-15T11:28:26;3.28;;;2.80;;
46731;SDS011;32477;51.474;5.696;2023-04-15T11:30:53;4.35;;;3.15;;
46731;SDS011;32477;51.474;5.696;2023-04-15T11:33:20;3.13;;;2.47;;
46731;SDS011;32477;51.474;5.696;2023-04-15T11:35:47;5.20;;;2.55;;
46731;SDS011;32477;51.474;5.696;2023-04-15T11:38:15;3.65;;;2.45;;
46731;SDS011;32477;51.474;5.696;2023-04-15T11:40:41;4.25;;;2.95;;
46731;SDS011;32477;51.474;5.696;2023-04-15T11:45:46;3.15;;;2.40;;
46731;SDS011;32477;51.474;5.696;2023-04-15T11:48:19;3.40;;;2.75;;
46731;SDS011;32477;51.474;5.696;2023-04-15T11:50:51;3.60;;;2.50;;
46731;SDS011;32477;51.474;5.696;2023-04-15T11:53:49;4.85;;;2.65;;
46731;SDS011;32477;51.474;5.696;2023-04-15T11:56:21;5.65;;;2.65;;
46731;SDS011;32477;51.474;5.696;2023-04-15T11:58:50;2.67;;;2.22;;
46731;SDS011;32477;51.474;5.696;2023-04-15T12:01:17;3.88;;;2.22;;
46731;SDS011;32477;51.474;5.696;2023-04-15T12:03:46;3.78;;;2.50;;
46731;SDS011;32477;51.474;5.696;2023-04-15T12:06:20;3.53;;;2.40;;
46731;SDS011;32477;51.474;5.696;2023-04-15T12:13:52;3.05;;;2.03;;
46731;SDS011;32477;51.474;5.696;2023-04-15T12:16:21;3.33;;;2.13;;
46731;SDS011;32477;51.474;5.696;2023-04-15T12:18:51;2.80;;;1.73;;
46731;SDS011;32477;51.474;5.696;2023-04-15T12:21:20;1.98;;;1.70;;
46731;SDS011;32477;51.474;5.696;2023-04-15T12:23:47;3.65;;;2.08;;
46731;SDS011;32477;51.474;5.696;2023-04-15T12:26:17;4.55;;;3.03;;
46731;SDS011;32477;51.474;5.696;2023-04-15T12:28:49;4.40;;;3.05;;
46731;SDS011;32477;51.474;5.696;2023-04-15T12:31:28;5.18;;;3.20;;
46731;SDS011;32477;51.474;5.696;2023-04-15T12:33:55;6.60;;;2.03;;
46731;SDS011;32477;51.474;5.696;2023-04-15T12:36:25;2.67;;;1.83;;
46731;SDS011;32477;51.474;5.696;2023-04-15T12:38:52;2.20;;;1.73;;
46731;SDS011;32477;51.474;5.696;2023-04-15T12:41:18;2.40;;;1.55;;
46731;SDS011;32477;51.474;5.696;2023-04-15T12:43:45;3.55;;;1.90;;
46731;SDS011;32477;51.474;5.696;2023-04-15T12:46:11;3.63;;;2.33;;
46731;SDS011;32477;51.474;5.696;2023-04-15T12:48:40;4.40;;;2.40;;
46731;SDS011;32477;51.474;5.696;2023-04-15T12:51:06;5.40;;;2.40;;
46731;SDS011;32477;51.474;5.696;2023-04-15T12:53:31;5.35;;;2.40;;
46731;SDS011;32477;51.474;5.696;2023-04-15T12:55:57;5.65;;;2.28;;
46731;SDS011;32477;51.474;5.696;2023-04-15T12:58:23;3.22;;;1.88;;
46731;SDS011;32477;51.474;5.696;2023-04-15T13:00:49;2.80;;;2.35;;
46731;SDS011;32477;51.474;5.696;2023-04-15T13:03:15;3.40;;;2.15;;
46731;SDS011;32477;51.474;5.696;2023-04-15T13:05:40;3.03;;;1.90;;
46731;SDS011;32477;51.474;5.696;2023-04-15T13:08:06;3.15;;;2.28;;
46731;SDS011;32477;51.474;5.696;2023-04-15T13:10:33;7.32;;;2.15;;
46731;SDS011;32477;51.474;5.696;2023-04-15T13:13:00;3.42;;;2.45;;
46731;SDS011;32477;51.474;5.696;2023-04-15T13:15:27;3.67;;;2.22;;
46731;SDS011;32477;51.474;5.696;2023-04-15T13:17:53;5.80;;;2.35;;
46731;SDS011;32477;51.474;5.696;2023-04-15T13:20:19;4.28;;;2.22;;
46731;SDS011;32477;51.474;5.696;2023-04-15T13:22:44;3.45;;;2.13;;
46731;SDS011;32477;51.474;5.696;2023-04-15T13:25:10;4.50;;;1.80;;
46731;SDS011;32477;51.474;5.696;2023-04-15T13:27:36;6.03;;;1.98;;
46731;SDS011;32477;51.474;5.696;2023-04-15T13:30:02;5.07;;;2.42;;
46731;SDS011;32477;51.474;5.696;2023-04-15T13:32:29;8.05;;;2.30;;
46731;SDS011;32477;51.474;5.696;2023-04-15T13:34:55;4.82;;;2.38;;
46731;SDS011;32477;51.474;5.696;2023-04-15T13:37:24;2.83;;;2.10;;
46731;SDS011;32477;51.474;5.696;2023-04-15T13:39:54;3.00;;;1.67;;
46731;SDS011;32477;51.474;5.696;2023-04-15T13:42:21;6.38;;;2.10;;
46731;SDS011;32477;51.474;5.696;2023-04-15T13:44:48;4.13;;;1.80;;
46731;SDS011;32477;51.474;5.696;2023-04-15T13:47:14;4.20;;;1.88;;
46731;SDS011;32477;51.474;5.696;2023-04-15T13:49:40;3.72;;;2.30;;
46731;SDS011;32477;51.474;5.696;2023-04-15T13:52:06;7.18;;;2.28;;
46731;SDS011;32477;51.474;5.696;2023-04-15T13:54:31;3.70;;;2.22;;
46731;SDS011;32477;51.474;5.696;2023-04-15T13:56:57;5.03;;;1.80;;
46731;SDS011;32477;51.474;5.696;2023-04-15T13:59:22;4.70;;;1.75;;
46731;SDS011;32477;51.474;5.696;2023-04-15T14:01:48;4.65;;;1.92;;
46731;SDS011;32477;51.474;5.696;2023-04-15T14:04:14;4.00;;;2.45;;
46731;SDS011;32477;51.474;5.696;2023-04-15T14:06:40;4.32;;;2.42;;
46731;SDS011;32477;51.474;5.696;2023-04-15T14:09:05;6.30;;;2.30;;
46731;SDS011;32477;51.474;5.696;2023-04-15T14:11:31;2.72;;;2.03;;
46731;SDS011;32477;51.474;5.696;2023-04-15T14:13:59;9.85;;;2.22;;
46731;SDS011;32477;51.474;5.696;2023-04-15T14:16:24;4.32;;;1.88;;
46731;SDS011;32477;51.474;5.696;2023-04-15T14:18:50;6.10;;;1.67;;
46731;SDS011;32477;51.474;5.696;2023-04-15T14:21:16;2.80;;;1.67;;
46731;SDS011;32477;51.474;5.696;2023-04-15T14:23:42;7.82;;;1.60;;
46731;SDS011;32477;51.474;5.696;2023-04-15T14:26:08;2.33;;;1.15;;
46731;SDS011;32477;51.474;5.696;2023-04-15T14:28:33;2.28;;;1.35;;
46731;SDS011;32477;51.474;5.696;2023-04-15T14:30:59;2.53;;;1.38;;
46731;SDS011;32477;51.474;5.696;2023-04-15T14:33:25;3.08;;;1.55;;
46731;SDS011;32477;51.474;5.696;2023-04-15T14:35:51;3.17;;;1.42;;
46731;SDS011;32477;51.474;5.696;2023-04-15T14:38:16;3.60;;;1.33;;
46731;SDS011;32477;51.474;5.696;2023-04-15T14:40:42;3.63;;;1.63;;
46731;SDS011;32477;51.474;5.696;2023-04-15T14:43:08;4.25;;;1.40;;
46731;SDS011;32477;51.474;5.696;2023-04-15T14:45:34;1.20;;;0.82;;
46731;SDS011;32477;51.474;5.696;2023-04-15T14:48:00;7.25;;;1.17;;
46731;SDS011;32477;51.474;5.696;2023-04-15T14:50:26;2.65;;;1.30;;
46731;SDS011;32477;51.474;5.696;2023-04-15T14:52:52;2.53;;;1.02;;
46731;SDS011;32477;51.474;5.696;2023-04-15T14:55:17;5.35;;;1.15;;
46731;SDS011;32477;51.474;5.696;2023-04-15T14:57:43;3.03;;;1.05;;
46731;SDS011;32477;51.474;5.696;2023-04-15T15:00:09;2.95;;;1.17;;